Time;durP1;ratioP1;P1;durP2;ratioP2;P2;SDS_P1;SDS_P2;PMS_P1;PMS_P2;Temp;Humidity;BMP_temperature;BMP_pressure;BME280_temperature;BME280_humidity;BME280_pressure;Samples;Min_cycle;Max_cycle;Signal;HPM_P1;HPM_P2
2023/04/04 00:01:05;;;;;;;4.82;2.00;;;2.10;99.90;;;;;;4986800;28;20411;-79
2023/04/04 00:03:31;;;;;;;2.72;1.77;;;2.10;99.90;;;;;;4987621;28;20022;-79
2023/04/04 00:05:57;;;;;;;3.60;1.70;;;2.00;99.90;;;;;;4988437;28;20033;-80
2023/04/04 00:08:22;;;;;;;4.60;2.00;;;2.00;99.90;;;;;;4987344;28;20031;-79
2023/04/04 00:10:48;;;;;;;4.55;1.85;;;1.90;99.90;;;;;;4972353;28;20039;-79
2023/04/04 00:13:14;;;;;;;7.03;2.33;;;1.80;99.90;;;;;;4970000;28;20027;-79
2023/04/04 00:15:40;;;;;;;4.57;2.33;;;1.80;99.90;;;;;;4987777;28;20084;-79
2023/04/04 00:18:05;;;;;;;7.20;2.33;;;1.80;99.90;;;;;;4987368;28;20041;-80
2023/04/04 00:20:31;;;;;;;10.13;2.33;;;1.70;99.90;;;;;;4986882;28;20038;-79
2023/04/04 00:22:57;;;;;;;6.32;2.33;;;1.70;99.90;;;;;;4987200;28;20482;-80
2023/04/04 00:25:23;;;;;;;3.65;2.40;;;1.70;99.90;;;;;;4969818;28;20030;-79
2023/04/04 00:27:49;;;;;;;4.60;1.92;;;1.70;99.90;;;;;;4986300;28;20541;-80
2023/04/04 00:30:15;;;;;;;4.43;2.45;;;1.70;99.90;;;;;;4983960;28;20117;-80
2023/04/04 00:32:40;;;;;;;6.93;2.05;;;1.70;99.90;;;;;;4986759;28;20026;-79
2023/04/04 00:35:06;;;;;;;5.00;2.22;;;1.70;99.90;;;;;;4987211;28;20030;-80
2023/04/04 00:37:32;;;;;;;7.25;1.98;;;1.70;99.90;;;;;;4987072;28;20030;-79
2023/04/04 00:39:58;;;;;;;4.70;2.17;;;1.70;99.90;;;;;;4987360;28;20037;-79
2023/04/04 00:42:24;;;;;;;4.25;2.30;;;1.70;99.90;;;;;;4988577;28;20030;-79
2023/04/04 00:44:51;;;;;;;7.25;2.92;;;1.60;99.90;;;;;;4988524;28;20042;-80
2023/04/04 00:47:17;;;;;;;6.00;2.65;;;1.50;99.90;;;;;;4992115;28;20034;-79
2023/04/04 00:49:45;;;;;;;5.18;3.25;;;1.50;99.90;;;;;;4965650;28;20030;-79
2023/04/04 00:52:10;;;;;;;5.70;2.83;;;1.30;99.90;;;;;;4990742;28;20386;-78
2023/04/04 00:54:37;;;;;;;11.52;3.08;;;1.30;99.90;;;;;;4987717;28;20042;-79
2023/04/04 00:57:06;;;;;;;6.57;3.30;;;1.20;99.90;;;;;;4971892;28;20039;-80
2023/04/04 00:59:32;;;;;;;9.43;3.25;;;1.30;99.90;;;;;;4954342;28;20055;-78
2023/04/04 01:01:59;;;;;;;5.30;3.00;;;1.20;99.90;;;;;;4972340;28;20045;-80
2023/04/04 01:04:27;;;;;;;5.95;2.58;;;1.20;99.90;;;;;;4972147;28;20026;-79
2023/04/04 01:06:53;;;;;;;5.65;2.72;;;1.20;99.90;;;;;;4990610;28;20042;-80
2023/04/04 01:09:18;;;;;;;7.32;2.67;;;1.20;99.90;;;;;;4983252;28;20124;-79
2023/04/04 01:11:44;;;;;;;6.85;2.60;;;1.10;99.90;;;;;;4985231;28;20033;-79
2023/04/04 01:14:10;;;;;;;7.28;2.50;;;1.20;99.90;;;;;;4973571;28;20134;-79
2023/04/04 01:16:36;;;;;;;6.50;2.75;;;1.20;99.90;;;;;;4973212;28;20121;-80
2023/04/04 01:19:05;;;;;;;3.97;2.30;;;1.20;99.90;;;;;;4985281;28;20526;-79
2023/04/04 01:21:31;;;;;;;6.20;2.65;;;1.20;99.90;;;;;;4971562;28;20057;-80
2023/04/04 01:24:01;;;;;;;5.88;2.40;;;1.20;99.90;;;;;;4958462;28;20029;-80
2023/04/04 01:26:28;;;;;;;5.97;2.53;;;1.30;99.90;;;;;;4990542;28;20117;-79
2023/04/04 01:28:54;;;;;;;3.95;1.70;;;1.30;99.90;;;;;;4990541;28;20522;-80
2023/04/04 01:31:37;;;;;;;5.07;1.90;;;1.20;99.90;;;;;;4991315;28;20109;-79
2023/04/04 01:34:31;;;;;;;4.25;1.70;;;1.30;99.90;;;;;;4977233;28;20026;-79
2023/04/04 01:37:27;;;;;;;3.78;2.03;;;1.20;99.90;;;;;;4959330;28;20057;-80
2023/04/04 01:39:58;;;;;;;6.28;2.17;;;1.30;99.90;;;;;;4985331;28;20117;-78
2023/04/04 01:42:25;;;;;;;3.55;1.63;;;1.20;99.90;;;;;;4982388;28;20027;-79
2023/04/04 01:44:55;;;;;;;3.78;1.88;;;1.20;99.90;;;;;;4981925;28;20062;-79
2023/04/04 01:47:22;;;;;;;4.35;1.90;;;1.20;99.90;;;;;;4988293;28;20050;-79
2023/04/04 01:49:48;;;;;;;4.05;1.98;;;1.30;99.90;;;;;;4995434;28;20052;-79
2023/04/04 01:52:13;;;;;;;5.43;2.38;;;1.30;99.90;;;;;;5002801;28;20814;-81
2023/04/04 01:54:39;;;;;;;7.70;2.72;;;1.30;99.90;;;;;;4989764;28;20042;-79
2023/04/04 01:57:05;;;;;;;6.38;2.30;;;1.30;99.90;;;;;;4976884;28;20044;-79
2023/04/04 01:59:30;;;;;;;8.10;2.80;;;1.30;99.90;;;;;;4989391;28;20532;-80
2023/04/04 02:01:56;;;;;;;5.65;2.78;;;1.30;99.90;;;;;;4984854;28;20090;-79
2023/04/04 02:04:22;;;;;;;11.88;2.92;;;1.40;99.90;;;;;;4980088;28;20081;-79
2023/04/04 02:06:47;;;;;;;6.00;2.15;;;1.40;99.90;;;;;;4990533;28;20023;-79
2023/04/04 02:09:13;;;;;;;8.95;2.28;;;1.30;99.90;;;;;;4989805;28;20041;-81
2023/04/04 02:11:38;;;;;;;5.63;2.60;;;1.30;99.90;;;;;;4988703;28;20018;-79
2023/04/04 02:14:04;;;;;;;9.07;2.83;;;1.30;99.90;;;;;;4989132;28;20715;-79
2023/04/04 02:16:30;;;;;;;5.43;2.28;;;1.30;99.90;;;;;;4990081;28;20138;-78
2023/04/04 02:18:56;;;;;;;4.40;2.10;;;1.30;99.90;;;;;;4987183;28;20062;-79
2023/04/04 02:21:21;;;;;;;6.22;1.90;;;1.30;99.90;;;;;;4989505;28;20070;-81
2023/04/04 02:23:47;;;;;;;9.02;2.42;;;1.30;99.90;;;;;;4989009;28;20038;-80
2023/04/04 02:26:12;;;;;;;6.00;1.88;;;1.30;99.90;;;;;;4971958;28;20030;-79
2023/04/04 02:28:38;;;;;;;7.47;2.33;;;1.20;99.90;;;;;;4970062;28;20896;-79
2023/04/04 02:31:04;;;;;;;5.50;2.00;;;1.20;99.90;;;;;;4969970;28;20026;-82
2023/04/04 02:33:30;;;;;;;5.32;2.60;;;1.20;99.90;;;;;;4984488;28;20129;-81
2023/04/04 02:35:59;;;;;;;4.75;2.50;;;1.20;99.90;;;;;;4988887;28;20113;-79
2023/04/04 02:38:25;;;;;;;5.85;2.40;;;1.20;99.90;;;;;;4990068;28;20166;-81
2023/04/04 02:40:51;;;;;;;3.95;1.80;;;1.10;99.90;;;;;;4989030;28;20101;-81
2023/04/04 02:43:17;;;;;;;3.25;1.90;;;1.10;99.90;;;;;;4989364;28;20625;-81
2023/04/04 02:45:42;;;;;;;4.40;1.80;;;1.10;99.90;;;;;;4972303;28;20034;-81
2023/04/04 02:48:09;;;;;;;5.38;2.58;;;1.00;99.90;;;;;;4989451;28;20169;-81
2023/04/04 02:50:35;;;;;;;4.72;1.85;;;0.90;99.90;;;;;;4982881;28;20066;-81
2023/04/04 02:53:01;;;;;;;10.40;2.35;;;0.90;99.90;;;;;;4982831;28;20556;-81
2023/04/04 02:55:27;;;;;;;5.25;2.75;;;0.90;99.90;;;;;;4986330;28;20065;-81
2023/04/04 02:57:53;;;;;;;3.28;1.92;;;0.90;99.90;;;;;;4989884;28;20113;-81
2023/04/04 03:00:19;;;;;;;3.03;1.80;;;0.80;99.90;;;;;;4989281;28;20054;-81
2023/04/04 03:02:45;;;;;;;4.43;1.58;;;0.70;99.90;;;;;;4971553;28;20027;-81
2023/04/04 03:05:10;;;;;;;3.42;2.00;;;0.70;99.90;;;;;;4986057;28;20046;-81
2023/04/04 03:07:37;;;;;;;6.63;2.08;;;0.70;99.90;;;;;;4988224;28;20390;-81
2023/04/04 03:10:03;;;;;;;6.82;2.63;;;0.70;99.90;;;;;;4989451;28;20038;-81
2023/04/04 03:12:28;;;;;;;5.53;2.60;;;0.60;99.90;;;;;;4988467;28;20453;-80
2023/04/04 03:14:54;;;;;;;4.90;2.30;;;0.60;99.90;;;;;;4988692;28;20038;-81
2023/04/04 03:17:19;;;;;;;6.82;2.65;;;0.60;99.90;;;;;;4991226;28;20038;-80
2023/04/04 03:19:45;;;;;;;6.43;2.25;;;0.60;99.90;;;;;;4988009;28;20057;-80
2023/04/04 03:22:10;;;;;;;3.15;2.20;;;0.60;99.90;;;;;;4962010;28;20126;-80
2023/04/04 03:24:36;;;;;;;6.95;2.20;;;0.50;99.90;;;;;;4974136;28;20062;-80
2023/04/04 03:27:02;;;;;;;5.43;2.50;;;0.40;99.90;;;;;;4986176;28;20038;-80
2023/04/04 03:29:27;;;;;;;6.00;2.40;;;0.40;99.90;;;;;;4970893;28;20045;-81
2023/04/04 03:31:53;;;;;;;5.60;1.80;;;0.20;99.90;;;;;;4989200;28;20031;-80
2023/04/04 03:34:19;;;;;;;4.78;2.38;;;0.10;99.90;;;;;;4988177;28;20027;-81
2023/04/04 03:36:47;;;;;;;6.13;2.80;;;0.10;99.90;;;;;;4988198;28;20038;-80
2023/04/04 03:39:13;;;;;;;5.60;3.13;;;0.10;99.90;;;;;;4988490;28;20030;-80
2023/04/04 03:41:39;;;;;;;8.20;3.10;;;0.10;99.90;;;;;;4988754;28;20033;-80
2023/04/04 03:44:05;;;;;;;7.35;3.67;;;0.00;99.90;;;;;;4964559;28;20185;-80
2023/04/04 03:46:31;;;;;;;7.18;3.25;;;0.00;99.90;;;;;;4985359;28;20030;-80
2023/04/04 03:48:56;;;;;;;7.93;3.53;;;0.00;99.90;;;;;;4989016;28;20414;-80
2023/04/04 03:51:23;;;;;;;6.20;3.38;;;0.00;99.90;;;;;;4988216;28;20430;-81
2023/04/04 03:53:49;;;;;;;6.45;2.90;;;0.00;99.90;;;;;;4988776;28;20026;-81
2023/04/04 03:56:15;;;;;;;7.85;3.22;;;0.00;99.90;;;;;;4976290;28;20042;-80
2023/04/04 03:58:40;;;;;;;7.88;3.40;;;-0.10;99.90;;;;;;4972371;28;20118;-81
2023/04/04 04:01:06;;;;;;;6.03;3.00;;;-0.10;99.90;;;;;;4949257;28;20134;-81
2023/04/04 04:03:31;;;;;;;5.78;3.10;;;-0.10;99.90;;;;;;4966888;28;20034;-80
2023/04/04 04:05:58;;;;;;;6.90;2.80;;;-0.10;99.90;;;;;;4960253;28;20513;-81
2023/04/04 04:08:24;;;;;;;7.18;2.55;;;-0.10;99.90;;;;;;4969680;28;20451;-81
2023/04/04 04:10:50;;;;;;;6.78;2.85;;;0.00;99.90;;;;;;4968632;28;20034;-81
2023/04/04 04:13:15;;;;;;;7.47;2.78;;;0.00;99.90;;;;;;4949463;28;20030;-81
2023/04/04 04:15:41;;;;;;;5.40;2.40;;;0.00;99.90;;;;;;4966816;28;20043;-82
2023/04/04 04:18:06;;;;;;;4.55;2.47;;;0.00;99.90;;;;;;4968603;28;20143;-81
2023/04/04 04:20:32;;;;;;;6.45;2.67;;;-0.10;99.90;;;;;;4969087;28;20067;-81
2023/04/04 04:22:58;;;;;;;7.07;2.47;;;-0.10;99.90;;;;;;4934630;28;20031;-81
2023/04/04 04:25:23;;;;;;;4.93;2.13;;;-0.20;99.90;;;;;;4964142;28;20053;-81
2023/04/04 04:27:49;;;;;;;5.22;2.30;;;-0.20;99.90;;;;;;4968052;28;20038;-81
2023/04/04 04:30:15;;;;;;;5.57;2.20;;;-0.20;99.90;;;;;;4949797;28;20048;-82
2023/04/04 04:32:41;;;;;;;7.68;2.90;;;-0.30;99.90;;;;;;4969904;28;20624;-81
2023/04/04 04:35:07;;;;;;;3.97;2.45;;;-0.30;99.90;;;;;;4971775;28;20041;-81
2023/04/04 04:37:33;;;;;;;6.75;3.10;;;-0.30;99.90;;;;;;4968796;28;20035;-82
2023/04/04 04:40:00;;;;;;;7.53;2.83;;;-0.30;99.90;;;;;;4968145;28;20041;-81
2023/04/04 04:42:26;;;;;;;7.18;3.10;;;-0.20;99.90;;;;;;4954074;28;20166;-81
2023/04/04 04:44:51;;;;;;;9.73;3.03;;;-0.20;99.90;;;;;;4957589;28;20118;-80
2023/04/04 04:47:17;;;;;;;6.22;2.78;;;-0.20;99.90;;;;;;4968226;28;20518;-81
2023/04/04 04:49:45;;;;;;;7.47;2.60;;;-0.20;99.90;;;;;;4968197;28;20042;-82
2023/04/04 04:52:10;;;;;;;8.32;2.80;;;-0.20;99.90;;;;;;4965565;28;20101;-80
2023/04/04 04:54:36;;;;;;;8.57;3.17;;;-0.20;99.90;;;;;;4963309;28;20023;-81
2023/04/04 04:57:02;;;;;;;8.07;3.35;;;-0.20;99.90;;;;;;4966056;28;20043;-82
2023/04/04 04:59:28;;;;;;;7.53;2.92;;;-0.10;99.90;;;;;;4973718;28;20054;-81
2023/04/04 05:01:54;;;;;;;9.70;3.28;;;-0.10;99.90;;;;;;4988002;28;20052;-81
2023/04/04 05:04:19;;;;;;;7.38;3.30;;;-0.20;99.90;;;;;;4986013;28;20826;-81
2023/04/04 05:06:45;;;;;;;6.55;2.75;;;-0.10;99.90;;;;;;4980672;28;20035;-80
2023/04/04 05:09:10;;;;;;;5.15;2.95;;;-0.10;99.90;;;;;;4970050;28;20034;-81
2023/04/04 05:11:36;;;;;;;8.77;2.65;;;-0.20;99.90;;;;;;4963312;28;20034;-81
2023/04/04 05:14:01;;;;;;;6.80;2.97;;;-0.20;99.90;;;;;;4965966;28;20030;-80
2023/04/04 05:16:27;;;;;;;5.97;2.90;;;-0.30;99.90;;;;;;4967606;28;20093;-81
2023/04/04 05:18:52;;;;;;;7.45;3.40;;;-0.30;99.90;;;;;;4986469;28;20030;-81
2023/04/04 05:21:18;;;;;;;8.73;3.30;;;-0.30;99.90;;;;;;4986020;28;20033;-81
2023/04/04 05:23:44;;;;;;;8.38;3.15;;;-0.30;99.90;;;;;;4978888;28;20035;-81
2023/04/04 05:26:09;;;;;;;10.73;3.50;;;-0.30;99.90;;;;;;4982055;28;20034;-81
2023/04/04 05:28:35;;;;;;;6.57;3.33;;;-0.30;99.90;;;;;;4986436;28;20031;-81
2023/04/04 05:31:01;;;;;;;5.63;3.50;;;-0.20;99.90;;;;;;4987598;28;20057;-81
2023/04/04 05:33:26;;;;;;;10.82;4.28;;;-0.20;99.90;;;;;;4973048;28;20084;-81
2023/04/04 05:35:52;;;;;;;9.38;3.53;;;-0.20;99.90;;;;;;4990087;28;20089;-81
2023/04/04 05:38:17;;;;;;;7.13;3.55;;;-0.20;99.90;;;;;;4990794;28;20372;-81
2023/04/04 05:40:44;;;;;;;10.95;3.90;;;-0.20;99.90;;;;;;4988430;28;20089;-82
2023/04/04 05:43:10;;;;;;;9.93;3.63;;;-0.10;99.90;;;;;;4986929;28;20113;-81
2023/04/04 05:45:35;;;;;;;6.50;3.53;;;-0.10;99.90;;;;;;4986714;28;20163;-81
2023/04/04 05:48:01;;;;;;;6.25;3.33;;;0.00;99.90;;;;;;4971220;28;20034;-82
2023/04/04 05:50:27;;;;;;;8.25;3.55;;;0.00;99.90;;;;;;4971004;28;20026;-81
2023/04/04 05:52:53;;;;;;;5.90;3.25;;;0.00;99.90;;;;;;4970640;28;20124;-81
2023/04/04 05:55:19;;;;;;;7.13;3.10;;;0.10;99.90;;;;;;4973800;28;20386;-81
2023/04/04 05:57:51;;;;;;;5.80;3.90;;;0.10;99.90;;;;;;4965323;28;20038;-81
2023/04/04 06:00:18;;;;;;;8.77;3.35;;;0.10;99.90;;;;;;4966393;28;20112;-80
2023/04/04 06:02:44;;;;;;;10.27;3.80;;;0.20;99.90;;;;;;4968916;28;20030;-80
2023/04/04 06:05:10;;;;;;;9.93;3.22;;;0.30;99.90;;;;;;4957435;28;20035;-81
2023/04/04 06:07:36;;;;;;;10.40;5.55;;;0.50;99.90;;;;;;4966695;28;20031;-80
2023/04/04 06:10:03;;;;;;;13.13;4.47;;;0.80;99.90;;;;;;4962990;28;20522;-80
2023/04/04 06:12:29;;;;;;;10.02;4.20;;;1.20;99.90;;;;;;4959892;28;20774;-80
2023/04/04 06:14:54;;;;;;;8.13;3.85;;;1.70;99.90;;;;;;4951803;28;20141;-81
2023/04/04 06:17:20;;;;;;;8.27;4.53;;;2.40;99.90;;;;;;4965644;28;20320;-81
2023/04/04 06:19:46;;;;;;;13.98;3.85;;;3.10;99.90;;;;;;4968796;28;20031;-81
2023/04/04 06:22:11;;;;;;;9.05;4.07;;;3.00;99.90;;;;;;4969699;28;20747;-81
2023/04/04 06:24:37;;;;;;;11.52;4.45;;;3.10;99.90;;;;;;4955997;28;20067;-80
2023/04/04 06:27:02;;;;;;;18.25;5.50;;;3.30;99.90;;;;;;4946796;28;20059;-80
2023/04/04 06:29:28;;;;;;;9.48;4.75;;;3.60;99.90;;;;;;4957937;28;20110;-81
2023/04/04 06:31:53;;;;;;;7.97;3.22;;;3.70;99.90;;;;;;4959514;28;20141;-81
2023/04/04 06:34:22;;;;;;;4.50;2.80;;;4.20;99.90;;;;;;4945429;28;20031;-82
2023/04/04 06:36:48;;;;;;;5.63;2.88;;;5.00;99.90;;;;;;4963107;28;20475;-81
2023/04/04 06:39:13;;;;;;;62.70;40.72;;;6.20;99.70;;;;;;4968597;28;20039;-81
2023/04/04 06:41:39;;;;;;;45.42;19.52;;;7.20;94.20;;;;;;4968538;28;20057;-81
2023/04/04 06:44:05;;;;;;;11.75;5.32;;;8.40;88.70;;;;;;4966863;28;20062;-79
2023/04/04 06:46:31;;;;;;;8.77;3.80;;;9.60;74.70;;;;;;4951498;28;20031;-82
2023/04/04 06:48:57;;;;;;;5.80;3.05;;;10.50;65.40;;;;;;4945360;28;20027;-80
2023/04/04 06:51:23;;;;;;;5.82;2.83;;;11.40;57.20;;;;;;4968376;28;20030;-81
2023/04/04 06:53:49;;;;;;;9.05;2.80;;;11.60;55.00;;;;;;4968687;28;20065;-81
2023/04/04 06:56:15;;;;;;;6.93;2.85;;;12.00;53.80;;;;;;4967644;28;20488;-81
2023/04/04 06:58:41;;;;;;;6.78;2.67;;;12.00;52.30;;;;;;4949777;28;20034;-80
2023/04/04 07:01:07;;;;;;;6.95;3.05;;;12.50;51.60;;;;;;4983300;28;20108;-81
2023/04/04 07:03:33;;;;;;;6.22;2.60;;;12.90;49.40;;;;;;4983939;28;20038;-81
2023/04/04 07:06:03;;;;;;;8.32;3.13;;;12.30;50.10;;;;;;4983171;28;20891;-80
2023/04/04 07:08:29;;;;;;;8.30;3.22;;;12.10;51.50;;;;;;4985788;28;20450;-80
2023/04/04 07:10:55;;;;;;;5.18;2.38;;;12.10;52.10;;;;;;4970599;28;20514;-81
2023/04/04 07:13:22;;;;;;;4.30;2.92;;;11.90;53.30;;;;;;4951137;28;20050;-81
2023/04/04 07:15:48;;;;;;;7.18;2.75;;;11.40;55.00;;;;;;4969793;28;20041;-81
2023/04/04 07:18:14;;;;;;;10.18;3.03;;;11.50;57.10;;;;;;4981989;28;20046;-81
2023/04/04 07:20:40;;;;;;;11.18;3.03;;;11.80;54.40;;;;;;4976956;28;20030;-81
2023/04/04 07:23:06;;;;;;;6.93;2.78;;;11.40;56.30;;;;;;4982436;28;20093;-81
2023/04/04 07:25:31;;;;;;;11.18;3.22;;;10.90;56.90;;;;;;4988450;28;20109;-80
2023/04/04 07:27:57;;;;;;;11.35;3.30;;;10.60;57.80;;;;;;4987246;28;20062;-81
2023/04/04 07:30:26;;;;;;;9.48;3.50;;;11.30;63.20;;;;;;4985112;28;20034;-81
2023/04/04 07:32:59;;;;;;;5.60;2.53;;;11.90;57.50;;;;;;4984566;28;20057;-81
2023/04/04 07:35:24;;;;;;;7.60;3.25;;;12.10;57.10;;;;;;4984621;28;20046;-81
2023/04/04 07:37:51;;;;;;;5.43;2.67;;;11.90;57.20;;;;;;4981190;28;20039;-80
2023/04/04 07:40:17;;;;;;;5.13;2.70;;;11.70;55.80;;;;;;4983718;28;20114;-81
2023/04/04 07:42:49;;;;;;;9.23;3.13;;;11.90;56.70;;;;;;4982984;28;20039;-82
2023/04/04 07:45:15;;;;;;;6.22;3.05;;;12.30;56.10;;;;;;4984553;28;20066;-81
2023/04/04 07:47:43;;;;;;;7.18;3.20;;;14.20;50.60;;;;;;4986794;28;20099;-81
2023/04/04 07:50:09;;;;;;;9.35;3.22;;;16.80;44.20;;;;;;4980851;28;20398;-81
2023/04/04 07:52:35;;;;;;;6.05;3.05;;;19.10;38.00;;;;;;4978355;28;20043;-82
2023/04/04 07:55:02;;;;;;;7.38;3.25;;;20.80;36.40;;;;;;4982574;28;20045;-82
2023/04/04 07:57:28;;;;;;;6.90;3.20;;;21.80;32.30;;;;;;4977551;28;20027;-81
2023/04/04 07:59:53;;;;;;;6.60;2.72;;;23.90;31.10;;;;;;4975626;28;20049;-81
2023/04/04 08:02:19;;;;;;;6.20;2.90;;;25.40;29.60;;;;;;4983120;28;20402;-82
2023/04/04 08:04:45;;;;;;;6.50;2.90;;;26.60;27.20;;;;;;4983005;28;20030;-81
2023/04/04 08:07:10;;;;;;;5.68;3.22;;;28.10;26.20;;;;;;4978476;28;20547;-81
2023/04/04 08:09:36;;;;;;;7.60;3.28;;;28.20;25.20;;;;;;4977034;28;20067;-82
2023/04/04 08:12:02;;;;;;;6.53;3.22;;;28.70;25.60;;;;;;4984386;28;20130;-82
2023/04/04 08:14:28;;;;;;;6.10;3.25;;;28.90;24.90;;;;;;4977994;28;20527;-82
2023/04/04 08:16:54;;;;;;;9.95;3.38;;;28.00;24.10;;;;;;4979040;28;20091;-82
2023/04/04 08:19:20;;;;;;;6.72;3.15;;;28.50;25.50;;;;;;4979875;28;20022;-82
2023/04/04 08:21:45;;;;;;;8.68;3.50;;;28.40;26.10;;;;;;4979451;28;20505;-82
2023/04/04 08:24:11;;;;;;;4.88;2.75;;;28.00;24.90;;;;;;4985738;28;20034;-82
2023/04/04 08:26:37;;;;;;;5.75;3.05;;;27.70;26.50;;;;;;4982749;28;20053;-82
2023/04/04 08:29:03;;;;;;;4.70;2.78;;;27.50;25.60;;;;;;4961341;28;20042;-81
2023/04/04 08:31:29;;;;;;;5.63;2.58;;;28.20;26.50;;;;;;4980573;28;20137;-81
2023/04/04 08:33:55;;;;;;;6.15;3.00;;;27.60;26.20;;;;;;4976486;28;20057;-81
2023/04/04 08:36:21;;;;;;;7.00;3.03;;;27.80;26.40;;;;;;4976919;28;20030;-81
2023/04/04 08:38:47;;;;;;;9.02;3.20;;;29.70;25.00;;;;;;4973915;28;20101;-82
2023/04/04 08:41:14;;;;;;;6.80;2.97;;;30.10;24.60;;;;;;4982841;28;20077;-82
2023/04/04 08:43:42;;;;;;;6.70;2.90;;;30.80;23.60;;;;;;4975449;28;20057;-82
2023/04/04 08:46:10;;;;;;;5.70;3.10;;;31.00;23.70;;;;;;4979588;28;20034;-81
2023/04/04 08:48:38;;;;;;;4.63;2.70;;;30.80;22.80;;;;;;4971228;28;20026;-80
2023/04/04 08:51:04;;;;;;;5.65;2.75;;;30.60;23.40;;;;;;4982522;28;20093;-82
2023/04/04 08:53:31;;;;;;;5.45;2.40;;;30.50;22.80;;;;;;4985872;28;20030;-80
2023/04/04 08:55:59;;;;;;;5.85;2.42;;;31.50;22.70;;;;;;4984170;28;20129;-80
2023/04/04 08:58:25;;;;;;;6.30;2.40;;;32.00;22.70;;;;;;4978385;28;20027;-80
2023/04/04 09:00:54;;;;;;;6.93;2.83;;;32.70;22.80;;;;;;4966696;28;20042;-80
2023/04/04 09:03:31;;;;;;;6.00;2.60;;;32.70;22.40;;;;;;4978595;28;20391;-81
2023/04/04 09:05:57;;;;;;;8.63;2.88;;;32.80;21.70;;;;;;4980036;28;20030;-82
2023/04/04 09:08:23;;;;;;;7.25;2.45;;;33.10;23.10;;;;;;4961737;28;20444;-81
2023/04/04 09:10:51;;;;;;;6.05;2.50;;;33.40;22.50;;;;;;4983779;28;20054;-81
2023/04/04 09:13:17;;;;;;;5.72;2.50;;;33.30;23.40;;;;;;4981583;28;20467;-81
2023/04/04 09:15:48;;;;;;;6.00;2.80;;;33.30;22.20;;;;;;4981907;28;20125;-81
2023/04/04 09:18:13;;;;;;;4.80;2.50;;;32.60;21.20;;;;;;4984717;28;20057;-82
2023/04/04 09:20:41;;;;;;;5.85;2.78;;;31.10;20.60;;;;;;4985987;28;20062;-82
2023/04/04 09:23:19;;;;;;;4.90;2.40;;;30.20;21.70;;;;;;4982292;28;20487;-81
2023/04/04 09:26:02;;;;;;;6.57;3.40;;;29.90;23.00;;;;;;4984828;28;20541;-83
2023/04/04 09:28:28;;;;;;;6.88;3.08;;;29.90;23.80;;;;;;4979847;28;20035;-82
2023/04/04 09:30:54;;;;;;;5.00;2.78;;;30.70;22.20;;;;;;4977259;28;20640;-82
2023/04/04 09:33:22;;;;;;;4.82;2.65;;;29.60;22.80;;;;;;4987607;28;20023;-81
2023/04/04 09:36:05;;;;;;;5.75;2.40;;;30.30;22.50;;;;;;4971474;28;20052;-81
2023/04/04 09:38:35;;;;;;;5.65;2.53;;;31.40;21.90;;;;;;4972547;28;20030;-82
2023/04/04 09:41:00;;;;;;;5.82;2.80;;;30.80;21.70;;;;;;4983938;28;20478;-81
2023/04/04 09:43:29;;;;;;;7.57;2.90;;;30.30;21.40;;;;;;4983372;28;20029;-81
2023/04/04 09:45:55;;;;;;;6.97;2.70;;;31.00;21.50;;;;;;4982242;28;20031;-81
2023/04/04 09:48:31;;;;;;;5.95;2.60;;;29.90;22.10;;;;;;4978864;28;20960;-79
2023/04/04 09:50:58;;;;;;;4.50;2.60;;;30.20;21.80;;;;;;4983219;28;20530;-81
2023/04/04 09:53:23;;;;;;;4.80;3.28;;;30.50;21.70;;;;;;4986725;28;20053;-81
2023/04/04 09:55:54;;;;;;;4.88;2.35;;;30.80;21.50;;;;;;4986086;28;20073;-79
2023/04/04 09:58:25;;;;;;;5.70;2.25;;;30.60;21.20;;;;;;4973331;28;20126;-80
2023/04/04 10:00:53;;;;;;;4.78;1.90;;;31.50;21.90;;;;;;4984474;28;20109;-81
2023/04/04 10:03:22;;;;;;;5.40;2.38;;;31.30;20.00;;;;;;4985577;28;20037;-81
2023/04/04 10:05:55;;;;;;;3.95;2.13;;;30.80;21.60;;;;;;4985521;28;20026;-80
2023/04/04 10:08:21;;;;;;;4.47;2.58;;;29.50;21.40;;;;;;4982486;28;20109;-81
2023/04/04 10:10:51;;;;;;;5.38;2.20;;;29.20;24.30;;;;;;4987159;28;20041;-81
2023/04/04 10:13:24;;;;;;;3.75;2.08;;;29.90;22.20;;;;;;4979475;28;20034;-80
2023/04/04 10:15:51;;;;;;;5.05;2.40;;;30.90;22.10;;;;;;4983125;28;20042;-81
2023/04/04 10:18:20;;;;;;;4.78;2.33;;;30.20;22.20;;;;;;4981609;28;20153;-81
2023/04/04 10:20:47;;;;;;;4.60;2.13;;;31.40;22.80;;;;;;4970485;28;20050;-81
2023/04/04 10:23:15;;;;;;;4.57;2.38;;;32.10;23.60;;;;;;4987035;28;20034;-80
2023/04/04 10:25:41;;;;;;;4.43;2.20;;;30.80;20.60;;;;;;4988227;28;20058;-80
2023/04/04 10:28:07;;;;;;;5.13;2.60;;;31.80;21.60;;;;;;4976900;28;20033;-82
2023/04/04 10:30:39;;;;;;;4.63;2.10;;;32.00;22.70;;;;;;4965536;28;20033;-81
2023/04/04 10:33:12;;;;;;;4.63;2.22;;;32.50;23.20;;;;;;4978763;28;20163;-82
2023/04/04 10:35:42;;;;;;;5.55;2.08;;;31.80;20.80;;;;;;4962624;28;20038;-82
2023/04/04 10:38:08;;;;;;;4.82;1.95;;;31.10;21.30;;;;;;4978946;28;20038;-80
2023/04/04 10:40:37;;;;;;;5.22;2.38;;;31.40;21.90;;;;;;4988050;28;20038;-81
2023/04/04 10:43:06;;;;;;;4.25;2.13;;;30.70;23.90;;;;;;4970026;28;20031;-81
2023/04/04 10:45:33;;;;;;;4.80;1.80;;;30.80;22.90;;;;;;4967749;28;20033;-81
2023/04/04 10:48:01;;;;;;;6.57;2.47;;;30.70;23.80;;;;;;4984790;28;20030;-82
2023/04/04 10:50:27;;;;;;;3.88;2.13;;;30.00;21.40;;;;;;4981582;28;20105;-82
2023/04/04 10:52:53;;;;;;;6.05;2.65;;;30.10;23.10;;;;;;4978520;28;20133;-81
2023/04/04 10:55:19;;;;;;;5.47;2.65;;;29.90;22.80;;;;;;4957625;28;20122;-81
2023/04/04 10:57:51;;;;;;;3.58;2.28;;;29.90;21.60;;;;;;4981571;28;20097;-81
2023/04/04 11:00:18;;;;;;;4.75;2.55;;;30.00;23.70;;;;;;4964114;28;20046;-81
2023/04/04 11:02:51;;;;;;;5.07;2.17;;;30.40;22.60;;;;;;4958580;28;20034;-80
2023/04/04 11:05:23;;;;;;;5.78;2.55;;;30.40;22.70;;;;;;4948591;29;20062;-81
2023/04/04 11:08:09;;;;;;;4.85;2.40;;;29.90;23.40;;;;;;4949177;28;20055;-81
2023/04/04 11:10:37;;;;;;;5.18;2.45;;;29.80;24.10;;;;;;4931813;29;20395;-81
2023/04/04 11:13:20;;;;;;;5.60;2.15;;;30.30;24.10;;;;;;4952360;28;20500;-81
2023/04/04 11:15:52;;;;;;;5.22;2.10;;;28.60;22.40;;;;;;4948739;29;20126;-80
2023/04/04 11:18:42;;;;;;;4.53;1.92;;;27.80;24.60;;;;;;4959477;28;20038;-81
2023/04/04 11:21:10;;;;;;;6.03;2.85;;;29.10;24.60;;;;;;4937423;28;20042;-81
2023/04/04 11:23:47;;;;;;;3.55;2.25;;;28.40;23.50;;;;;;4963444;28;20139;-81
2023/04/04 11:26:26;;;;;;;4.68;2.35;;;27.60;23.20;;;;;;4949343;29;20075;-80
2023/04/04 11:28:55;;;;;;;4.30;2.30;;;27.00;25.20;;;;;;4948355;28;20492;-81
2023/04/04 11:31:26;;;;;;;5.13;2.38;;;25.70;25.10;;;;;;4963073;28;20023;-80
2023/04/04 11:33:58;;;;;;;;;;;24.00;28.00;;;;;;4967846;28;20035;-81
2023/04/04 11:36:35;;;;;;;6.93;2.80;;;22.50;30.80;;;;;;4967899;28;19945;-81
2023/04/04 11:39:21;;;;;;;5.40;3.03;;;21.30;29.80;;;;;;4951134;28;20483;-79
2023/04/04 11:42:06;;;;;;;7.32;3.05;;;20.20;35.90;;;;;;4962857;28;21717;-81
2023/04/04 11:44:38;;;;;;;5.47;2.83;;;19.00;36.20;;;;;;4937064;28;20043;-79
2023/04/04 11:47:09;;;;;;;5.97;3.20;;;17.90;36.90;;;;;;4944643;28;20715;-80
2023/04/04 11:49:39;;;;;;;;;;;18.20;44.20;;;;;;4955007;28;20106;-82
2023/04/04 11:52:08;;;;;;;4.57;2.45;;;18.50;41.80;;;;;;4968058;28;19917;-79
2023/04/04 11:54:34;;;;;;;12.27;2.88;;;18.40;37.90;;;;;;4963942;28;20049;-81
2023/04/04 11:57:02;;;;;;;6.53;3.03;;;18.10;41.20;;;;;;4962440;28;20041;-82
2023/04/04 11:59:29;;;;;;;5.03;2.72;;;17.90;39.30;;;;;;4964129;28;20078;-81
2023/04/04 12:01:55;;;;;;;7.45;2.45;;;18.20;42.00;;;;;;4976704;28;20030;-80
2023/04/04 12:04:21;;;;;;;4.90;2.40;;;18.40;36.30;;;;;;4977618;28;20030;-80
2023/04/04 12:06:55;;;;;;;5.38;2.67;;;18.40;37.80;;;;;;4975936;28;20038;-82
2023/04/04 12:09:24;;;;;;;4.43;2.65;;;18.20;35.80;;;;;;4979055;28;20026;-80
2023/04/04 12:11:50;;;;;;;8.20;2.67;;;18.30;39.30;;;;;;4966592;28;20058;-80
2023/04/04 12:14:21;;;;;;;6.20;2.40;;;18.40;38.90;;;;;;4979856;28;20038;-80
2023/04/04 12:16:54;;;;;;;4.63;2.37;;;17.80;42.50;;;;;;4982506;28;20042;-80
2023/04/04 12:19:22;;;;;;;5.18;2.30;;;18.40;41.60;;;;;;4976132;28;20430;-81
2023/04/04 12:21:49;;;;;;;5.35;2.38;;;18.40;38.00;;;;;;4978484;28;20027;-81
2023/04/04 12:24:16;;;;;;;6.22;2.55;;;18.50;38.60;;;;;;4974111;28;20022;-81
2023/04/04 12:26:44;;;;;;;7.28;2.88;;;18.90;40.90;;;;;;4964089;28;20026;-80
2023/04/04 12:29:11;;;;;;;4.25;2.30;;;18.90;35.10;;;;;;4968425;28;20080;-80
2023/04/04 12:31:40;;;;;;;6.38;2.58;;;19.10;36.00;;;;;;4975667;28;20495;-83
2023/04/04 12:34:05;;;;;;;7.78;2.50;;;18.50;41.00;;;;;;4968869;28;20035;-84
2023/04/04 12:36:34;;;;;;;5.40;2.60;;;18.50;41.30;;;;;;4982304;28;20053;-81
2023/04/04 12:39:00;;;;;;;6.40;2.63;;;18.50;42.10;;;;;;4986513;28;20058;-84
2023/04/04 12:41:27;;;;;;;6.22;2.50;;;18.20;42.80;;;;;;4991226;28;20034;-81
2023/04/04 12:44:03;;;;;;;5.05;2.13;;;18.10;35.60;;;;;;4993747;28;20070;-80
2023/04/04 12:46:38;;;;;;;5.15;2.35;;;18.60;40.40;;;;;;4987388;28;20026;-80
2023/04/04 12:49:06;;;;;;;4.80;2.40;;;19.00;37.50;;;;;;4992918;28;20109;-81
2023/04/04 12:51:34;;;;;;;5.05;2.60;;;19.60;38.90;;;;;;4986634;28;20030;-82